Time;durP1;ratioP1;P1;durP2;ratioP2;P2;SDS_P1;SDS_P2;PMS_P1;PMS_P2;Temp;Humidity;BMP_temperature;BMP_pressure;BME280_temperature;BME280_humidity;BME280_pressure;Samples;Min_cycle;Max_cycle;Signal;HPM_P1;HPM_P2
2021/03/07 00:01:35;;;;;;;2.28;0.63;;;12.80;49.40;;;;;;4764726;30;20501;-81
2021/03/07 00:04:01;;;;;;;3.17;0.60;;;12.80;49.40;;;;;;4738538;30;20051;-81
2021/03/07 00:06:27;;;;;;;1.98;0.60;;;12.80;49.40;;;;;;4738561;30;20059;-81
2021/03/07 00:08:52;;;;;;;2.92;0.52;;;12.80;49.40;;;;;;4755020;30;20128;-81
2021/03/07 00:11:19;;;;;;;2.17;0.75;;;12.80;49.50;;;;;;4754266;30;20044;-81
2021/03/07 00:13:44;;;;;;;1.10;0.50;;;12.80;49.50;;;;;;4738606;30;20048;-81
2021/03/07 00:16:11;;;;;;;2.17;0.60;;;12.80;49.50;;;;;;4754319;30;20048;-81
2021/03/07 00:18:37;;;;;;;3.20;0.63;;;12.80;49.50;;;;;;4739038;30;20052;-81
2021/03/07 00:21:02;;;;;;;1.67;0.80;;;12.80;49.40;;;;;;4738442;30;20059;-81
2021/03/07 00:23:28;;;;;;;3.58;0.73;;;12.80;49.30;;;;;;4754364;30;20056;-82
2021/03/07 00:25:54;;;;;;;3.17;0.70;;;12.80;49.20;;;;;;4760026;30;20048;-81
2021/03/07 00:28:20;;;;;;;3.78;0.70;;;12.80;49.10;;;;;;4742689;30;20155;-81
2021/03/07 00:30:46;;;;;;;3.80;0.95;;;12.80;49.10;;;;;;4738355;30;20059;-82
2021/03/07 00:33:11;;;;;;;1.70;0.60;;;12.80;49.00;;;;;;4738507;30;20089;-81
2021/03/07 00:35:37;;;;;;;1.98;0.60;;;12.80;49.00;;;;;;4754093;30;20059;-81
2021/03/07 00:38:03;;;;;;;2.05;0.80;;;12.80;49.10;;;;;;4747862;30;20059;-81
2021/03/07 00:40:29;;;;;;;1.77;0.75;;;12.80;49.00;;;;;;4770603;30;20039;-81
2021/03/07 00:42:55;;;;;;;1.92;0.60;;;12.80;49.00;;;;;;4756222;30;20044;-81
2021/03/07 00:45:21;;;;;;;2.67;0.75;;;12.80;49.10;;;;;;4771641;30;20048;-82
2021/03/07 00:47:47;;;;;;;1.85;0.60;;;12.80;49.00;;;;;;4749412;30;20147;-81
2021/03/07 00:50:23;;;;;;;2.75;0.80;;;12.80;49.00;;;;;;4753994;30;20128;-81
2021/03/07 00:52:49;;;;;;;1.33;0.70;;;12.70;49.00;;;;;;4753967;30;20121;-81
2021/03/07 00:55:15;;;;;;;2.95;0.50;;;12.70;49.00;;;;;;4738281;30;20044;-81
2021/03/07 00:57:41;;;;;;;2.03;0.60;;;12.80;49.10;;;;;;4752907;30;20052;-81
2021/03/07 01:00:12;;;;;;;1.92;1.05;;;12.80;49.10;;;;;;4754043;30;20105;-81
2021/03/07 01:02:38;;;;;;;1.75;0.77;;;12.70;49.00;;;;;;4737985;30;20052;-81
2021/03/07 01:05:05;;;;;;;2.33;0.73;;;12.70;49.10;;;;;;4738491;30;20131;-81
2021/03/07 01:07:31;;;;;;;2.67;0.80;;;12.70;49.00;;;;;;4738980;30;20487;-81
2021/03/07 01:09:57;;;;;;;2.45;0.70;;;12.70;49.00;;;;;;4740721;30;20052;-81
2021/03/07 01:12:23;;;;;;;2.95;0.90;;;12.80;49.00;;;;;;4726395;30;20076;-81
2021/03/07 01:14:49;;;;;;;1.98;0.63;;;12.70;48.90;;;;;;4741118;30;20048;-81
2021/03/07 01:17:15;;;;;;;1.75;0.80;;;12.80;48.90;;;;;;4756489;30;20067;-81
2021/03/07 01:19:41;;;;;;;3.97;0.98;;;12.70;48.80;;;;;;4741179;30;20114;-81
2021/03/07 01:22:08;;;;;;;1.30;0.70;;;12.70;48.70;;;;;;4741429;30;20360;-81
2021/03/07 01:24:34;;;;;;;1.90;0.60;;;12.70;48.70;;;;;;4741032;30;20044;-81
2021/03/07 01:27:00;;;;;;;3.25;0.60;;;12.70;48.70;;;;;;4741660;30;20056;-81
2021/03/07 01:29:26;;;;;;;2.08;0.47;;;12.70;48.70;;;;;;4741216;30;20060;-81
2021/03/07 01:31:52;;;;;;;1.33;0.50;;;12.70;48.70;;;;;;4741005;30;20084;-81
2021/03/07 01:34:18;;;;;;;3.17;0.57;;;12.70;48.60;;;;;;4741526;30;20458;-81
2021/03/07 01:36:47;;;;;;;1.67;0.50;;;12.70;48.60;;;;;;4741883;30;20124;-81
2021/03/07 01:39:13;;;;;;;3.30;0.98;;;12.70;48.60;;;;;;4755960;30;20067;-81
2021/03/07 01:41:39;;;;;;;1.92;0.50;;;12.70;48.60;;;;;;4756573;30;20047;-81
2021/03/07 01:44:05;;;;;;;1.23;0.40;;;12.60;48.50;;;;;;4770171;30;20059;-81
2021/03/07 01:46:32;;;;;;;1.70;0.70;;;12.70;48.60;;;;;;4740400;30;20056;-81
2021/03/07 01:48:58;;;;;;;1.58;0.70;;;12.60;48.60;;;;;;4740894;30;20058;-81
2021/03/07 01:51:24;;;;;;;3.05;0.85;;;12.60;48.60;;;;;;4740816;30;20427;-81
2021/03/07 01:53:50;;;;;;;1.38;0.60;;;12.60;48.60;;;;;;4740497;30;20436;-81
2021/03/07 01:56:17;;;;;;;1.38;0.57;;;12.60;48.70;;;;;;4727217;30;20060;-81
2021/03/07 01:58:47;;;;;;;1.73;0.50;;;12.60;48.70;;;;;;4756037;30;20131;-81
2021/03/07 02:01:13;;;;;;;1.38;0.50;;;12.60;48.70;;;;;;4740398;30;20048;-81
2021/03/07 02:03:53;;;;;;;1.75;0.55;;;12.70;48.70;;;;;;4740318;30;20048;-81
2021/03/07 02:06:20;;;;;;;2.40;0.50;;;12.70;48.60;;;;;;4760990;30;20047;-81
2021/03/07 02:08:47;;;;;;;2.33;0.50;;;12.70;48.60;;;;;;4742560;30;20445;-81
2021/03/07 02:11:13;;;;;;;1.73;0.50;;;12.70;48.50;;;;;;4755363;30;20070;-81
2021/03/07 02:13:41;;;;;;;1.80;0.60;;;12.70;48.40;;;;;;4740055;30;20418;-81
2021/03/07 02:16:15;;;;;;;2.35;0.60;;;12.70;48.40;;;;;;4751068;30;20063;-81
2021/03/07 02:18:44;;;;;;;2.30;0.90;;;12.70;48.20;;;;;;4758433;30;20051;-81
2021/03/07 02:21:22;;;;;;;1.02;0.38;;;12.70;48.10;;;;;;4757906;30;20060;-81
2021/03/07 02:24:02;;;;;;;1.38;0.40;;;12.70;48.10;;;;;;4755878;30;20048;-81
2021/03/07 02:26:29;;;;;;;3.28;0.50;;;12.60;48.00;;;;;;4740935;30;20044;-81
2021/03/07 02:28:55;;;;;;;2.60;0.55;;;12.70;48.10;;;;;;4740362;30;20048;-81
2021/03/07 02:31:23;;;;;;;1.95;0.50;;;12.60;48.00;;;;;;4725456;30;20450;-81
2021/03/07 02:34:02;;;;;;;1.27;0.50;;;12.60;48.10;;;;;;4740428;30;20051;-81
2021/03/07 02:36:35;;;;;;;2.55;0.50;;;12.60;48.10;;;;;;4756129;30;20072;-81
2021/03/07 02:39:02;;;;;;;2.00;0.40;;;12.60;48.20;;;;;;4739684;30;20480;-81
2021/03/07 02:41:33;;;;;;;2.78;0.60;;;12.60;48.30;;;;;;4740340;30;20068;-81
2021/03/07 02:44:02;;;;;;;2.20;0.82;;;12.60;48.30;;;;;;4739753;30;20143;-81
2021/03/07 02:46:31;;;;;;;1.45;0.50;;;12.60;48.30;;;;;;4740316;30;20129;-81
2021/03/07 02:49:00;;;;;;;1.27;0.52;;;12.60;48.30;;;;;;4739871;30;20090;-81
2021/03/07 02:51:29;;;;;;;2.83;0.60;;;12.60;48.30;;;;;;4768981;30;20059;-81
2021/03/07 02:53:58;;;;;;;2.33;0.65;;;12.60;48.30;;;;;;4739678;30;20082;-81
2021/03/07 02:56:30;;;;;;;2.85;0.75;;;12.60;48.40;;;;;;4739682;30;20106;-82
2021/03/07 02:59:01;;;;;;;1.92;0.70;;;12.60;48.40;;;;;;4753487;30;20052;-81
2021/03/07 03:01:29;;;;;;;2.22;0.60;;;12.70;48.50;;;;;;4739804;30;20055;-81
2021/03/07 03:03:55;;;;;;;1.55;0.40;;;12.60;48.50;;;;;;4755041;30;20056;-81
2021/03/07 03:06:22;;;;;;;1.40;0.50;;;12.70;48.50;;;;;;4740273;30;20085;-81
2021/03/07 03:08:57;;;;;;;1.67;0.30;;;12.70;48.40;;;;;;4739623;30;20055;-81
2021/03/07 03:11:26;;;;;;;1.65;0.40;;;12.70;48.40;;;;;;4739048;30;20052;-81
2021/03/07 03:13:52;;;;;;;1.45;0.40;;;12.60;48.30;;;;;;4739716;30;20044;-81
2021/03/07 03:16:24;;;;;;;2.63;0.32;;;12.60;48.40;;;;;;4751426;30;20044;-81
2021/03/07 03:18:55;;;;;;;1.88;0.40;;;12.60;48.30;;;;;;4739346;30;20056;-81
2021/03/07 03:21:21;;;;;;;2.55;0.40;;;12.60;48.30;;;;;;4754739;30;20047;-81
2021/03/07 03:23:47;;;;;;;1.15;0.38;;;12.60;48.40;;;;;;4739336;30;20466;-82
2021/03/07 03:26:14;;;;;;;1.77;0.43;;;12.70;48.50;;;;;;4772630;30;20366;-81
2021/03/07 03:28:41;;;;;;;1.50;0.20;;;12.60;48.30;;;;;;4771349;30;20367;-81
2021/03/07 03:31:07;;;;;;;2.80;0.30;;;12.70;48.30;;;;;;4769297;30;20051;-81
2021/03/07 03:33:33;;;;;;;1.42;0.20;;;12.60;48.30;;;;;;4771418;30;20121;-81
2021/03/07 03:35:59;;;;;;;0.82;0.20;;;12.60;48.30;;;;;;4758897;30;20375;-81
2021/03/07 03:38:31;;;;;;;2.17;0.65;;;12.70;48.20;;;;;;4754697;30;20044;-81
2021/03/07 03:40:57;;;;;;;1.08;0.20;;;12.60;48.20;;;;;;4755226;30;20115;-82
2021/03/07 03:43:24;;;;;;;2.47;0.45;;;12.60;48.20;;;;;;4738584;30;20382;-81
2021/03/07 03:45:55;;;;;;;0.95;0.30;;;12.70;48.30;;;;;;4739100;30;20459;-81
2021/03/07 03:48:22;;;;;;;2.92;0.55;;;12.70;48.20;;;;;;4738926;30;20056;-81
2021/03/07 03:50:49;;;;;;;0.55;0.40;;;12.70;48.20;;;;;;4739401;30;20048;-81
2021/03/07 03:53:20;;;;;;;1.45;0.20;;;12.60;48.20;;;;;;4756414;30;20454;-81
2021/03/07 03:55:48;;;;;;;2.05;0.40;;;12.70;48.10;;;;;;4771815;30;20070;-81
2021/03/07 03:58:16;;;;;;;1.92;0.50;;;12.70;48.20;;;;;;4753908;30;20131;-81
2021/03/07 04:00:43;;;;;;;1.17;0.30;;;12.70;48.20;;;;;;4738547;30;20152;-81
2021/03/07 04:03:17;;;;;;;1.88;0.52;;;12.60;48.10;;;;;;4754082;30;20377;-81
2021/03/07 04:05:47;;;;;;;1.65;0.40;;;12.60;48.20;;;;;;4745898;30;20047;-81
2021/03/07 04:08:16;;;;;;;2.28;0.40;;;12.70;48.30;;;;;;4756649;30;20086;-81
2021/03/07 04:10:42;;;;;;;1.65;0.43;;;12.60;48.30;;;;;;4742088;30;20377;-81
2021/03/07 04:13:10;;;;;;;0.88;0.30;;;12.60;48.20;;;;;;4739638;30;20052;-81
2021/03/07 04:15:38;;;;;;;2.08;0.47;;;12.70;48.30;;;;;;4739101;30;20044;-81
2021/03/07 04:18:06;;;;;;;2.05;0.60;;;12.60;48.20;;;;;;4738525;30;20048;-82
2021/03/07 04:20:32;;;;;;;1.30;0.30;;;12.60;48.20;;;;;;4754035;30;20056;-81
2021/03/07 04:22:58;;;;;;;1.98;0.40;;;12.70;48.30;;;;;;4752827;30;20143;-81
2021/03/07 04:25:24;;;;;;;0.90;0.32;;;12.60;48.20;;;;;;4750385;30;20127;-81
2021/03/07 04:27:51;;;;;;;1.13;0.50;;;12.70;48.20;;;;;;4747251;30;20043;-81
2021/03/07 04:30:18;;;;;;;0.95;0.30;;;12.70;48.20;;;;;;4770738;30;20051;-81
2021/03/07 04:32:44;;;;;;;1.60;0.40;;;12.70;48.20;;;;;;4758191;30;20056;-82
2021/03/07 04:35:12;;;;;;;3.08;0.73;;;12.60;48.10;;;;;;4738629;30;20056;-81
2021/03/07 04:37:38;;;;;;;1.67;0.38;;;12.60;48.00;;;;;;4753697;30;20076;-81
2021/03/07 04:40:05;;;;;;;2.70;0.60;;;12.60;48.00;;;;;;4763643;30;20179;-80
2021/03/07 04:42:35;;;;;;;1.63;0.32;;;12.70;47.70;;;;;;4753059;30;20059;-81
2021/03/07 04:45:03;;;;;;;1.48;0.43;;;12.70;47.30;;;;;;4741652;30;20070;-82
2021/03/07 04:47:29;;;;;;;1.10;0.30;;;12.70;47.30;;;;;;4738699;30;20064;-82
2021/03/07 04:49:55;;;;;;;5.32;0.70;;;12.70;47.70;;;;;;4758355;30;20059;-82
2021/03/07 04:52:21;;;;;;;7.35;0.95;;;12.80;48.30;;;;;;4756239;30;20078;-82
2021/03/07 04:54:47;;;;;;;6.57;0.80;;;12.80;48.90;;;;;;4758125;30;20060;-80
2021/03/07 04:57:13;;;;;;;4.80;0.73;;;12.80;49.60;;;;;;4759337;30;20432;-83
2021/03/07 04:59:38;;;;;;;3.13;0.88;;;12.90;50.20;;;;;;4742489;30;20506;-83
2021/03/07 05:02:04;;;;;;;3.38;0.52;;;13.00;50.70;;;;;;4744554;30;20067;-83
2021/03/07 05:04:32;;;;;;;1.95;0.60;;;13.00;50.90;;;;;;4742099;30;20124;-84
2021/03/07 05:07:04;;;;;;;7.65;0.70;;;13.10;51.00;;;;;;4741173;30;20390;-86
2021/03/07 05:09:30;;;;;;;5.32;0.70;;;13.20;52.20;;;;;;4756868;30;20426;-79
2021/03/07 05:11:59;;;;;;;13.15;3.58;;;13.20;51.80;;;;;;4771165;30;20055;-82
2021/03/07 05:14:25;;;;;;;8.20;2.05;;;13.30;53.10;;;;;;4774309;30;20098;-84
2021/03/07 05:16:58;;;;;;;9.55;2.15;;;13.40;53.50;;;;;;4759001;30;20071;-84
2021/03/07 05:19:23;;;;;;;7.27;1.57;;;13.40;54.60;;;;;;4757425;30;20100;-81
2021/03/07 05:21:51;;;;;;;7.47;1.60;;;13.50;54.20;;;;;;4758176;30;20048;-84
2021/03/07 05:24:17;;;;;;;10.95;2.15;;;13.60;54.20;;;;;;4742240;30;20059;-82
2021/03/07 05:26:44;;;;;;;10.45;2.42;;;13.70;54.30;;;;;;4757274;30;20405;-81
2021/03/07 05:29:10;;;;;;;11.07;2.42;;;13.80;57.20;;;;;;4726233;30;20071;-83
2021/03/07 05:31:36;;;;;;;6.20;1.70;;;13.90;57.00;;;;;;4740914;30;20142;-80
2021/03/07 05:34:02;;;;;;;7.65;1.83;;;14.00;56.90;;;;;;4755197;30;20418;-81
2021/03/07 05:36:28;;;;;;;5.38;1.30;;;14.00;56.90;;;;;;4756995;30;20058;-82
2021/03/07 05:38:54;;;;;;;6.05;1.58;;;14.10;55.90;;;;;;4774555;30;20059;-83
2021/03/07 05:41:20;;;;;;;4.00;1.48;;;14.10;56.20;;;;;;4734245;30;20056;-82
2021/03/07 05:43:48;;;;;;;3.95;1.15;;;14.20;56.00;;;;;;4740574;30;20067;-82
2021/03/07 05:46:18;;;;;;;4.15;1.55;;;14.30;55.90;;;;;;4740319;30;20366;-84
2021/03/07 05:48:44;;;;;;;3.95;1.23;;;14.30;55.70;;;;;;4726328;30;20060;-81
2021/03/07 05:51:14;;;;;;;3.70;1.40;;;14.40;55.00;;;;;;4740619;30;20113;-80
2021/03/07 05:53:45;;;;;;;4.40;1.23;;;14.40;55.20;;;;;;4740583;30;20123;-84
2021/03/07 05:56:11;;;;;;;3.00;1.08;;;14.50;55.60;;;;;;4740890;30;20048;-83
2021/03/07 05:58:38;;;;;;;3.03;1.10;;;14.60;56.20;;;;;;4740520;30;20056;-82
2021/03/07 06:01:07;;;;;;;5.22;1.10;;;14.60;55.90;;;;;;4774004;30;20138;-84
2021/03/07 06:03:41;;;;;;;4.40;0.75;;;14.70;56.00;;;;;;4742339;30;20155;-86
2021/03/07 06:06:07;;;;;;;11.02;1.15;;;14.80;56.20;;;;;;4772506;30;20496;-79
2021/03/07 06:08:33;;;;;;;7.25;1.50;;;14.80;56.10;;;;;;4754756;30;20064;-83
2021/03/07 06:11:00;;;;;;;7.70;1.30;;;15.00;56.40;;;;;;4740785;30;20457;-79
2021/03/07 06:13:37;;;;;;;6.25;1.88;;;15.00;56.30;;;;;;4756616;30;20055;-80
2021/03/07 06:16:12;;;;;;;5.78;1.45;;;15.10;56.10;;;;;;4740154;30;20063;-81
2021/03/07 06:18:43;;;;;;;9.05;1.25;;;15.10;55.80;;;;;;4754665;30;20612;-82
2021/03/07 06:21:33;;;;;;;11.80;1.42;;;15.10;55.60;;;;;;4754810;30;20048;-83
2021/03/07 06:24:04;;;;;;;3.33;1.23;;;15.10;55.40;;;;;;4767048;30;20187;-83
2021/03/07 06:26:32;;;;;;;5.00;1.00;;;15.10;55.40;;;;;;4749568;30;20109;-82
2021/03/07 06:29:09;;;;;;;5.40;1.13;;;15.10;55.40;;;;;;4757557;30;20059;-86
2021/03/07 06:31:35;;;;;;;6.03;1.38;;;15.20;55.60;;;;;;4742973;30;20382;-80
2021/03/07 06:34:02;;;;;;;6.28;1.35;;;15.20;55.90;;;;;;4768368;30;20048;-80
2021/03/07 06:36:29;;;;;;;4.07;1.20;;;15.20;55.60;;;;;;4755658;30;20076;-80
2021/03/07 06:39:05;;;;;;;3.60;1.25;;;15.20;55.60;;;;;;4755661;30;20141;-79
2021/03/07 06:41:33;;;;;;;9.57;1.60;;;15.20;55.40;;;;;;4752460;30;20047;-81
2021/03/07 06:44:13;;;;;;;5.32;1.08;;;15.30;55.60;;;;;;4756516;30;20048;-80
2021/03/07 06:46:44;;;;;;;9.00;1.25;;;15.30;55.60;;;;;;4755617;30;20080;-80
2021/03/07 06:49:26;;;;;;;5.10;1.17;;;15.30;55.60;;;;;;4770445;30;20048;-78
2021/03/07 06:51:54;;;;;;;5.95;1.25;;;15.30;55.50;;;;;;4772251;30;20047;-80
2021/03/07 06:54:21;;;;;;;5.25;1.13;;;15.30;55.50;;;;;;4771640;30;20052;-81
2021/03/07 06:56:51;;;;;;;8.50;1.70;;;15.30;55.40;;;;;;4754621;30;20056;-81
2021/03/07 06:59:23;;;;;;;8.32;1.08;;;15.40;55.50;;;;;;4739451;30;20080;-81
2021/03/07 07:01:54;;;;;;;3.88;1.02;;;15.40;55.40;;;;;;4754257;30;20056;-82
2021/03/07 07:04:22;;;;;;;9.13;1.42;;;15.50;55.20;;;;;;4739077;30;20198;-82
2021/03/07 07:07:02;;;;;;;7.93;1.70;;;15.50;55.10;;;;;;4754424;30;20071;-80
2021/03/07 07:09:28;;;;;;;7.85;1.90;;;15.50;54.80;;;;;;4755466;30;20060;-81
2021/03/07 07:11:54;;;;;;;7.50;1.55;;;15.50;54.60;;;;;;4760991;30;20052;-81
2021/03/07 07:14:38;;;;;;;4.85;1.52;;;15.50;54.40;;;;;;4756294;30;20048;-81
2021/03/07 07:17:05;;;;;;;;;;;15.50;54.30;;;;;;4770600;30;20051;-80
2021/03/07 07:19:31;;;;;;;3.95;1.30;;;15.50;54.30;;;;;;4758073;30;19926;-81
2021/03/07 07:21:57;;;;;;;6.13;1.42;;;15.60;54.40;;;;;;4754896;30;20044;-81
2021/03/07 07:24:24;;;;;;;3.58;1.15;;;15.60;54.30;;;;;;4754745;30;20121;-82
2021/03/07 07:26:50;;;;;;;9.48;1.65;;;15.60;54.10;;;;;;4754741;30;20382;-82
2021/03/07 07:29:19;;;;;;;4.28;1.40;;;15.60;54.00;;;;;;4739713;30;20054;-82
2021/03/07 07:31:54;;;;;;;8.80;1.35;;;15.60;53.90;;;;;;4738955;30;20131;-82
2021/03/07 07:34:28;;;;;;;4.38;1.27;;;15.70;53.90;;;;;;4739039;30;20056;-82
2021/03/07 07:37:03;;;;;;;;;;;15.70;53.80;;;;;;4755707;30;20495;-81
2021/03/07 07:39:40;;;;;;;6.03;1.20;;;15.70;53.80;;;;;;4763997;30;20017;-82
2021/03/07 07:42:29;;;;;;;5.63;1.30;;;15.70;53.70;;;;;;4754704;30;20062;-80
2021/03/07 07:45:16;;;;;;;6.05;1.33;;;15.70;53.40;;;;;;4738651;30;20370;-82
2021/03/07 07:47:49;;;;;;;2.40;1.17;;;15.70;53.60;;;;;;4760952;30;20471;-82
2021/03/07 07:50:28;;;;;;;4.25;1.20;;;15.80;53.50;;;;;;4772146;30;20047;-82
2021/03/07 07:52:55;;;;;;;2.25;0.98;;;15.80;53.50;;;;;;4756037;30;20051;-82
2021/03/07 07:55:48;;;;;;;4.82;0.90;;;15.80;53.50;;;;;;4756178;30;20055;-82
2021/03/07 07:58:36;;;;;;;4.38;0.98;;;15.90;53.40;;;;;;4763613;30;20450;-80
2021/03/07 08:01:03;;;;;;;3.55;0.93;;;15.90;53.30;;;;;;4755232;30;20063;-81
2021/03/07 08:03:39;;;;;;;4.10;1.33;;;15.90;53.20;;;;;;4754817;30;20473;-83
2021/03/07 08:06:06;;;;;;;5.05;1.10;;;15.90;53.10;;;;;;4738964;30;20048;-82
2021/03/07 08:08:40;;;;;;;13.52;1.90;;;15.90;53.20;;;;;;4753984;30;20048;-82
2021/03/07 08:11:27;;;;;;;11.70;1.40;;;15.90;53.20;;;;;;4738328;30;20071;-81
2021/03/07 08:13:57;;;;;;;9.32;1.50;;;15.90;53.10;;;;;;4754189;30;20048;-82
2021/03/07 08:16:39;;;;;;;5.93;1.98;;;15.90;53.00;;;;;;4739275;30;20048;-84
2021/03/07 08:19:16;;;;;;;9.13;1.40;;;15.90;52.60;;;;;;4727551;30;20582;-84
2021/03/07 08:21:56;;;;;;;7.28;3.00;;;15.90;52.40;;;;;;4759596;30;20142;-83
2021/03/07 08:24:47;;;;;;;7.25;1.90;;;15.80;50.00;;;;;;4760369;30;20424;-83
2021/03/07 08:27:31;;;;;;;;;;;15.80;50.40;;;;;;4751402;30;20056;-84
2021/03/07 08:29:57;;;;;;;5.22;1.60;;;15.70;51.00;;;;;;4743005;30;19926;-84
2021/03/07 08:33:22;;;;;;;4.55;1.58;;;15.70;51.50;;;;;;4743960;30;20059;-85
2021/03/07 08:36:20;;;;;;;7.82;2.30;;;15.80;51.50;;;;;;4742545;30;20398;-84
2021/03/07 08:38:49;;;;;;;9.65;1.85;;;15.70;51.50;;;;;;4759073;30;20070;-88
2021/03/07 08:41:21;;;;;;;12.10;2.63;;;15.80;51.80;;;;;;4737365;30;20063;-85
2021/03/07 08:44:02;;;;;;;10.02;2.10;;;15.80;51.80;;;;;;4766243;30;20047;-80
2021/03/07 08:46:43;;;;;;;9.80;2.65;;;15.80;52.20;;;;;;4745075;30;20480;-84
2021/03/07 08:49:53;;;;;;;11.07;2.40;;;15.90;52.10;;;;;;4738987;30;20470;-85
2021/03/07 08:52:35;;;;;;;;;;;;;;;;;;;;;
2021/03/07 08:55:30;;;;;;;11.57;1.80;;;15.90;52.40;;;;;;4759398;30;20122;-89
2021/03/07 08:58:20;;;;;;;;;;;;;;;;;;;;;
2021/03/07 09:08:29;;;;;;;12.02;2.05;;;16.10;52.00;;;;;;4737062;30;20546;-84
2021/03/07 09:11:27;;;;;;;9.13;2.35;;;16.20;52.40;;;;;;4743902;30;20055;-87
2021/03/07 09:14:36;;;;;;;13.02;2.20;;;16.30;52.10;;;;;;4773373;30;20070;-87
2021/03/07 09:17:19;;;;;;;9.55;2.03;;;16.20;52.00;;;;;;4744480;30;20071;-87
2021/03/07 09:20:09;;;;;;;5.55;1.65;;;16.30;51.90;;;;;;4758949;30;20055;-85
2021/03/07 09:22:55;;;;;;;6.43;1.58;;;16.30;51.80;;;;;;4758731;30;20217;-86
2021/03/07 09:25:30;;;;;;;8.77;1.42;;;16.30;51.70;;;;;;4758223;30;20067;-86
2021/03/07 09:27:58;;;;;;;6.97;2.20;;;16.30;51.60;;;;;;4758928;30;20071;-87
2021/03/07 09:30:55;;;;;;;4.32;1.40;;;16.30;51.50;;;;;;4771983;30;20134;-87
2021/03/07 09:33:26;;;;;;;5.07;2.20;;;16.30;51.40;;;;;;4757866;30;20055;-86
2021/03/07 09:39:53;;;;;;;4.55;1.35;;;16.30;51.30;;;;;;4735713;29;20541;-85
2021/03/07 09:43:20;;;;;;;4.00;1.50;;;16.30;51.50;;;;;;4757832;30;20067;-87
2021/03/07 09:46:42;;;;;;;;;;;;;;;;;;;;;
2021/03/07 09:50:18;;;;;;;5.10;1.55;;;16.20;51.60;;;;;;4769219;30;20488;-85
2021/03/07 09:54:58;;;;;;;;;;;;;;;;;;;;;
2021/03/07 09:57:13;;;;;;;6.32;1.30;;;16.20;51.70;;;;;;4684644;30;20062;-86
2021/03/07 10:03:52;;;;;;;6.20;1.48;;;16.20;51.70;;;;;;4720697;30;20057;-85
2021/03/07 10:06:35;;;;;;;3.72;1.73;;;16.20;51.80;;;;;;4734874;30;20076;-85
2021/03/07 10:13:36;;;;;;;4.75;1.33;;;16.20;51.50;;;;;;4763323;30;20051;-86
2021/03/07 10:17:00;;;;;;;;;;;;;;;;;;;;;
2021/03/07 10:19:43;;;;;;;10.35;1.85;;;16.20;51.50;;;;;;4752408;30;20064;-86
2021/03/07 10:30:30;;;;;;;7.70;2.88;;;16.20;51.50;;;;;;4734465;30;20498;-85
2021/03/07 10:33:33;;;;;;;16.35;3.40;;;16.20;50.80;;;;;;4687278;30;20058;-83
2021/03/07 10:36:10;;;;;;;6.70;3.20;;;16.10;51.50;;;;;;4657034;30;20074;-84
2021/03/07 10:38:47;;;;;;;6.50;3.03;;;16.20;51.40;;;;;;4715551;30;20146;-84
2021/03/07 10:41:31;;;;;;;13.38;3.45;;;16.20;51.30;;;;;;4716837;30;20060;-86
2021/03/07 10:44:43;;;;;;;6.50;2.97;;;16.20;51.60;;;;;;4706154;30;20064;-85
2021/03/07 10:47:13;;;;;;;17.63;8.43;;;16.20;51.70;;;;;;4742225;30;20547;-85
2021/03/07 10:49:39;;;;;;;15.68;4.85;;;16.20;49.90;;;;;;4732084;30;20070;-85
2021/03/07 10:52:05;;;;;;;10.63;7.88;;;16.20;50.00;;;;;;4738737;30;20048;-83
2021/03/07 10:54:31;;;;;;;8.82;4.40;;;16.10;48.50;;;;;;4733414;30;20056;-86
2021/03/07 10:56:57;;;;;;;9.07;4.50;;;16.10;49.70;;;;;;4707123;30;20070;-84
2021/03/07 10:59:55;;;;;;;10.93;5.18;;;16.00;50.60;;;;;;4723233;30;20071;-87
2021/03/07 11:02:51;;;;;;;14.90;4.35;;;16.00;51.00;;;;;;4710513;30;20080;-88
2021/03/07 11:05:18;;;;;;;8.43;4.47;;;15.90;51.20;;;;;;4743250;30;20056;-84
2021/03/07 11:07:45;;;;;;;8.27;3.90;;;15.90;51.70;;;;;;4722012;30;20448;-83
2021/03/07 11:10:13;;;;;;;9.18;4.07;;;15.90;52.00;;;;;;4725529;30;20475;-85
2021/03/07 11:12:48;;;;;;;15.68;8.18;;;15.90;52.40;;;;;;4707292;30;20382;-86
2021/03/07 11:15:19;;;;;;;19.08;10.70;;;15.90;53.00;;;;;;4707054;30;20068;-85
2021/03/07 11:18:06;;;;;;;16.48;9.93;;;15.90;52.60;;;;;;4713980;30;20146;-87
2021/03/07 11:20:41;;;;;;;10.75;7.90;;;15.90;51.40;;;;;;4742110;30;20052;-90
2021/03/07 11:23:17;;;;;;;14.43;8.13;;;15.80;49.10;;;;;;4724125;30;20052;-84
2021/03/07 11:25:46;;;;;;;13.45;8.32;;;15.80;48.10;;;;;;4735970;30;20059;-87
2021/03/07 11:28:17;;;;;;;16.90;10.13;;;15.70;46.90;;;;;;4730254;30;20482;-87
2021/03/07 11:31:16;;;;;;;14.52;11.38;;;15.70;46.90;;;;;;4753245;30;20063;-87
2021/03/07 11:33:45;;;;;;;13.43;8.73;;;15.70;46.90;;;;;;4722982;30;20087;-85
2021/03/07 11:36:42;;;;;;;18.23;10.50;;;15.60;45.60;;;;;;4732422;30;20048;-88
2021/03/07 11:39:17;;;;;;;15.63;9.95;;;15.50;45.50;;;;;;4721636;30;20466;-84
2021/03/07 11:41:58;;;;;;;12.13;9.10;;;15.50;44.70;;;;;;4723522;30;20059;-88
2021/03/07 11:44:39;;;;;;;15.10;10.05;;;15.40;43.90;;;;;;4753235;30;20056;-87
2021/03/07 11:47:27;;;;;;;20.08;11.75;;;15.40;43.80;;;;;;4734473;30;20485;-86
2021/03/07 11:49:54;;;;;;;17.35;11.75;;;15.30;45.10;;;;;;4735102;30;20474;-84
2021/03/07 11:52:22;;;;;;;15.13;10.43;;;15.30;45.60;;;;;;4754993;30;20099;-81
2021/03/07 11:54:57;;;;;;;17.77;10.23;;;15.30;46.10;;;;;;4724100;30;20582;-87
2021/03/07 11:57:23;;;;;;;15.80;9.45;;;15.30;46.30;;;;;;4755028;30;20048;-84
2021/03/07 11:59:49;;;;;;;15.25;9.50;;;15.30;46.00;;;;;;4736498;30;20389;-83
2021/03/07 12:02:15;;;;;;;13.27;8.52;;;15.30;46.10;;;;;;4753406;30;20075;-83
2021/03/07 12:04:41;;;;;;;11.80;8.25;;;15.30;46.00;;;;;;4771843;30;20470;-84
2021/03/07 12:07:07;;;;;;;12.90;8.98;;;15.40;46.00;;;;;;4747093;30;20056;-83
2021/03/07 12:09:33;;;;;;;15.05;8.27;;;15.40;46.70;;;;;;4723815;30;20056;-82
2021/03/07 12:12:00;;;;;;;12.18;6.95;;;15.40;47.00;;;;;;4738486;30;20467;-81
2021/03/07 12:14:26;;;;;;;10.48;6.97;;;15.40;47.60;;;;;;4744882;30;20079;-82
2021/03/07 12:16:54;;;;;;;19.38;11.38;;;15.50;48.40;;;;;;4763953;30;20466;-84
2021/03/07 12:19:21;;;;;;;19.20;13.02;;;15.50;49.40;;;;;;4725225;30;20086;-82
2021/03/07 12:21:49;;;;;;;19.30;13.15;;;15.50;47.40;;;;;;4750189;30;20099;-82
2021/03/07 12:24:18;;;;;;;18.77;13.68;;;15.50;46.10;;;;;;4751174;30;20253;-81
2021/03/07 12:26:44;;;;;;;17.08;11.35;;;15.50;46.30;;;;;;4740172;30;20163;-82
2021/03/07 12:29:10;;;;;;;17.77;12.30;;;15.40;47.40;;;;;;4746957;30;20444;-82
2021/03/07 12:31:36;;;;;;;18.45;14.00;;;15.40;47.90;;;;;;4738032;30;20432;-82
2021/03/07 12:34:03;;;;;;;20.52;12.75;;;15.50;46.40;;;;;;4738911;30;20055;-80
2021/03/07 12:36:29;;;;;;;17.17;10.73;;;15.40;46.40;;;;;;4738890;30;20063;-82
2021/03/07 12:38:56;;;;;;;15.65;10.93;;;15.40;47.80;;;;;;4771849;30;20512;-82
2021/03/07 12:41:22;;;;;;;13.52;10.43;;;15.50;48.70;;;;;;4755908;30;20048;-82
2021/03/07 12:43:48;;;;;;;15.00;9.90;;;15.50;49.20;;;;;;4752763;30;20139;-80
2021/03/07 12:46:14;;;;;;;17.00;8.38;;;15.50;49.50;;;;;;4739007;30;20119;-80
2021/03/07 12:48:39;;;;;;;11.93;8.55;;;15.50;49.70;;;;;;4754388;30;20089;-78
2021/03/07 12:51:05;;;;;;;14.77;8.32;;;15.60;50.10;;;;;;4755828;30;20117;-81
2021/03/07 12:53:32;;;;;;;11.98;8.43;;;15.60;50.10;;;;;;4728779;30;20431;-80
2021/03/07 12:55:58;;;;;;;10.57;7.75;;;15.70;50.40;;;;;;4771138;30;20067;-81
2021/03/07 12:58:24;;;;;;;14.25;8.73;;;15.70;50.60;;;;;;4754136;30;20057;-82
2021/03/07 13:00:50;;;;;;;14.23;8.07;;;15.70;50.60;;;;;;4751957;30;20059;-80
2021/03/07 13:03:16;;;;;;;13.68;8.23;;;15.70;50.60;;;;;;4765646;30;20397;-82
2021/03/07 13:05:41;;;;;;;19.13;8.57;;;15.70;50.70;;;;;;4772218;30;20067;-80
2021/03/07 13:08:07;;;;;;;11.77;8.35;;;15.70;50.80;;;;;;4773463;30;20062;-81
2021/03/07 13:10:33;;;;;;;13.32;9.23;;;15.80;50.70;;;;;;4757265;30;20462;-81
2021/03/07 13:13:00;;;;;;;12.40;7.57;;;15.80;50.60;;;;;;4757808;30;20131;-80
2021/03/07 13:15:25;;;;;;;12.23;7.80;;;15.80;50.80;;;;;;4772064;30;20048;-80
2021/03/07 13:17:51;;;;;;;11.75;7.45;;;15.80;50.90;;;;;;4766785;30;20079;-81
2021/03/07 13:20:18;;;;;;;21.42;9.30;;;15.80;51.10;;;;;;4758510;30;20087;-82
2021/03/07 13:22:43;;;;;;;14.27;8.10;;;15.80;51.30;;;;;;4756565;30;20484;-83
2021/03/07 13:25:10;;;;;;;12.93;7.57;;;15.80;51.50;;;;;;4753571;30;20047;-84
2021/03/07 13:27:37;;;;;;;17.35;8.52;;;15.80;51.80;;;;;;4764664;30;20051;-84
2021/03/07 13:30:05;;;;;;;16.15;8.38;;;15.90;52.70;;;;;;4765354;30;20063;-85
2021/03/07 13:32:31;;;;;;;14.77;7.57;;;15.90;53.50;;;;;;4755249;30;20462;-84
2021/03/07 13:34:57;;;;;;;43.28;11.45;;;16.00;53.40;;;;;;4743251;30;20066;-85
2021/03/07 13:37:23;;;;;;;21.02;8.40;;;16.00;52.80;;;;;;4758434;30;20150;-84
2021/03/07 13:39:49;;;;;;;22.63;9.50;;;16.00;53.00;;;;;;4759086;30;20071;-85
2021/03/07 13:42:15;;;;;;;19.15;8.75;;;16.00;52.80;;;;;;4745428;30;20056;-83
2021/03/07 13:44:41;;;;;;;26.08;8.70;;;16.00;52.90;;;;;;4726971;30;20060;-80